createdAt,value
2022-12-11T00:02:06.399Z,97.48
2022-12-11T00:04:58.675Z,97.45
2022-12-11T00:07:51.329Z,97.42
2022-12-11T00:10:50.703Z,97.36
2022-12-11T00:13:43.427Z,97.35
2022-12-11T00:16:35.720Z,97.13
2022-12-11T00:19:28.022Z,97.12
2022-12-11T00:22:20.221Z,96.99
2022-12-11T00:25:13.094Z,97.06
2022-12-11T00:28:05.569Z,97.17
2022-12-11T00:30:58.028Z,97.19
2022-12-11T00:33:52.352Z,97.23
2022-12-11T00:36:44.682Z,97.25
2022-12-11T00:39:39.976Z,97.11
2022-12-11T00:42:32.066Z,97.13
2022-12-11T00:45:25.689Z,97.42
2022-12-11T00:48:18.217Z,97.43
2022-12-11T00:51:11.805Z,97.46
2022-12-11T00:54:04.433Z,97.51
2022-12-11T00:56:58.177Z,97.40
2022-12-11T00:59:50.365Z,97.20
2022-12-11T01:02:42.543Z,96.79
2022-12-11T01:05:35.552Z,96.57
2022-12-11T01:08:27.730Z,96.58
2022-12-11T01:11:21.105Z,96.67
2022-12-11T01:14:14.121Z,96.81
2022-12-11T01:17:06.111Z,97.06
2022-12-11T01:19:58.397Z,97.14
2022-12-11T01:22:53.185Z,97.18
2022-12-11T01:25:45.910Z,97.13
2022-12-11T01:28:38.491Z,97.17
2022-12-11T01:31:30.727Z,97.06
2022-12-11T01:34:23.162Z,96.87
2022-12-11T01:37:15.671Z,96.85
2022-12-11T01:40:09.812Z,96.99
2022-12-11T01:43:02.138Z,96.93
2022-12-11T01:45:54.513Z,97.02
2022-12-11T01:48:46.855Z,97.13
2022-12-11T01:51:45.571Z,97.52
2022-12-11T01:54:38.165Z,97.73
2022-12-11T01:57:31.100Z,97.66
2022-12-11T02:00:23.868Z,97.52
2022-12-11T02:03:16.162Z,97.35
2022-12-11T02:06:22.162Z,97.33
2022-12-11T02:09:17.796Z,97.38
2022-12-11T02:12:18.261Z,97.54
2022-12-11T02:15:18.630Z,97.54
2022-12-11T02:18:15.108Z,97.77
2022-12-11T02:21:12.553Z,97.79
2022-12-11T02:24:32.555Z,97.91
2022-12-11T02:27:33.583Z,97.88
2022-12-11T02:30:26.738Z,97.93
2022-12-11T02:33:23.068Z,97.80
2022-12-11T02:36:19.003Z,97.47
2022-12-11T02:39:13.796Z,97.30
2022-12-11T02:42:08.317Z,97.28
2022-12-11T02:45:03.116Z,97.33
2022-12-11T02:47:57.379Z,97.49
2022-12-11T02:50:51.813Z,97.71
2022-12-11T02:53:46.782Z,97.53
2022-12-11T02:56:43.593Z,97.42
2022-12-11T02:59:38.427Z,97.33
2022-12-11T03:02:30.480Z,97.28
2022-12-11T03:05:22.881Z,97.32
2022-12-11T03:08:17.721Z,97.39
2022-12-11T03:11:13.205Z,97.44
2022-12-11T03:14:06.088Z,97.51
2022-12-11T03:17:05.107Z,97.32
2022-12-11T03:20:05.961Z,97.28
2022-12-11T03:23:04.270Z,97.27
2022-12-11T03:25:58.695Z,97.36
2022-12-11T03:28:56.890Z,97.46
2022-12-11T03:31:55.277Z,97.41
2022-12-11T03:34:53.483Z,97.44
2022-12-11T03:37:52.646Z,97.45
2022-12-11T03:40:48.295Z,97.50
2022-12-11T03:43:41.915Z,97.70
2022-12-11T03:46:37.448Z,97.68
2022-12-11T03:49:35.017Z,97.49
2022-12-11T03:52:30.636Z,97.58
2022-12-11T03:55:24.251Z,97.30
2022-12-11T03:58:16.488Z,97.24
2022-12-11T04:01:12.089Z,97.31
2022-12-11T04:04:07.281Z,97.41
2022-12-11T04:06:59.611Z,97.48
2022-12-11T04:09:52.083Z,97.59
2022-12-11T04:12:45.563Z,97.42
2022-12-11T04:15:39.301Z,97.38
2022-12-11T04:19:06.811Z,97.35
2022-12-11T04:22:16.796Z,97.19
2022-12-11T04:25:10.665Z,97.24
2022-12-11T04:28:03.198Z,97.32
2022-12-11T04:30:55.544Z,97.43
2022-12-11T04:33:48.157Z,97.51
2022-12-11T04:36:40.426Z,97.38
2022-12-11T04:39:33.136Z,97.25
2022-12-11T04:42:25.467Z,97.00
2022-12-11T04:45:18.061Z,96.73
2022-12-11T04:48:10.452Z,96.84
2022-12-11T04:51:02.999Z,96.92
2022-12-11T04:53:55.773Z,97.09
2022-12-11T04:56:48.137Z,97.25
2022-12-11T04:59:40.503Z,97.28
2022-12-11T05:02:35.381Z,97.20
2022-12-11T05:05:28.054Z,97.20
2022-12-11T05:08:20.871Z,97.23
2022-12-11T05:11:14.984Z,97.23
2022-12-11T05:14:07.327Z,97.42
2022-12-11T05:16:59.987Z,97.42
2022-12-11T05:19:53.007Z,97.64
2022-12-11T05:22:45.448Z,97.85
2022-12-11T05:25:37.678Z,98.04
2022-12-11T05:28:31.679Z,98.17
2022-12-11T05:31:25.230Z,98.19
2022-12-11T05:34:17.549Z,97.99
2022-12-11T05:37:09.823Z,97.83
2022-12-11T05:40:02.197Z,97.66
2022-12-11T05:42:54.379Z,97.57
2022-12-11T05:45:46.626Z,97.56
2022-12-11T05:48:39.498Z,97.66
2022-12-11T05:51:34.422Z,97.75
2022-12-11T05:54:26.350Z,97.82
2022-12-11T05:57:18.631Z,98.52
2022-12-11T06:00:12.536Z,98.66
2022-12-11T06:03:05.194Z,98.54
2022-12-11T06:05:57.546Z,98.02
2022-12-11T06:08:52.686Z,97.72
2022-12-11T06:11:44.935Z,97.52
2022-12-11T06:14:37.053Z,97.47
2022-12-11T06:17:29.252Z,97.46
2022-12-11T06:20:21.680Z,97.34
2022-12-11T06:23:13.934Z,97.22
2022-12-11T06:26:08.303Z,97.20
2022-12-11T06:29:00.716Z,97.28
2022-12-11T06:31:53.039Z,97.53
2022-12-11T06:34:45.356Z,97.61
2022-12-11T06:37:38.014Z,97.45
2022-12-11T06:40:30.450Z,97.58
2022-12-11T06:43:22.720Z,97.69
2022-12-11T06:46:17.285Z,97.76
2022-12-11T06:49:09.397Z,97.93
2022-12-11T06:52:01.687Z,97.90
2022-12-11T06:54:54.026Z,98.07
2022-12-11T06:57:46.315Z,97.91
2022-12-11T07:00:39.908Z,98.01
2022-12-11T07:03:32.062Z,98.10
2022-12-11T07:06:24.985Z,97.98
2022-12-11T07:09:17.386Z,97.89
2022-12-11T07:12:10.627Z,98.00
2022-12-11T07:15:03.006Z,98.10
2022-12-11T07:17:55.324Z,98.31
2022-12-11T07:20:48.107Z,98.47
2022-12-11T07:23:40.743Z,98.47
2022-12-11T07:26:33.023Z,98.36
2022-12-11T07:29:25.351Z,98.10
2022-12-11T07:32:17.811Z,97.89
2022-12-11T07:35:11.187Z,97.86
2022-12-11T07:38:03.889Z,97.60
2022-12-11T07:40:56.205Z,97.60
2022-12-11T07:43:48.588Z,97.46
2022-12-11T07:46:41.501Z,97.66
2022-12-11T07:49:33.920Z,97.82
2022-12-11T07:52:26.631Z,97.80
2022-12-11T07:55:18.997Z,97.89
2022-12-11T07:58:11.449Z,97.73
2022-12-11T08:01:03.819Z,97.58
2022-12-11T08:03:57.207Z,97.54
2022-12-11T08:06:49.083Z,97.49
2022-12-11T08:09:47.988Z,97.54
2022-12-11T08:12:40.350Z,97.60
2022-12-11T08:15:32.571Z,97.68
2022-12-11T08:18:24.954Z,97.76
2022-12-11T08:21:18.937Z,97.86
2022-12-11T08:24:11.690Z,97.90
2022-12-11T08:27:03.912Z,97.99
2022-12-11T08:29:56.461Z,97.95
2022-12-11T08:32:48.787Z,97.86
2022-12-11T08:35:44.276Z,97.75
2022-12-11T08:38:36.154Z,97.68
2022-12-11T08:41:30.309Z,97.63
2022-12-11T08:44:25.259Z,97.77
2022-12-11T08:47:17.486Z,97.81
2022-12-11T08:50:10.530Z,97.85
2022-12-11T08:53:02.761Z,98.22
2022-12-11T08:55:54.885Z,98.17
2022-12-11T08:58:48.030Z,98.19
2022-12-11T09:01:39.849Z,98.24
2022-12-11T09:04:32.420Z,97.99
2022-12-11T09:07:24.708Z,97.65
2022-12-11T09:10:16.914Z,97.48
2022-12-11T09:13:09.230Z,97.43
2022-12-11T09:16:01.591Z,97.47
2022-12-11T09:18:59.117Z,97.42
2022-12-11T09:21:51.175Z,97.26
2022-12-11T09:24:43.563Z,97.21
2022-12-11T09:27:37.152Z,96.99
2022-12-11T09:30:29.343Z,97.00
2022-12-11T09:33:21.695Z,96.86
2022-12-11T09:36:14.742Z,96.62
2022-12-11T09:39:09.108Z,96.51
2022-12-11T09:42:09.309Z,95.81
2022-12-11T09:45:03.223Z,95.47
2022-12-11T09:47:57.383Z,95.38
2022-12-11T09:50:52.897Z,95.28
2022-12-11T09:53:44.728Z,95.22
2022-12-11T09:56:43.788Z,94.86
2022-12-11T09:59:45.321Z,94.19
2022-12-11T10:02:51.326Z,93.79
2022-12-11T10:05:51.456Z,93.24
2022-12-11T10:08:53.778Z,92.32
2022-12-11T10:12:07.985Z,91.22
2022-12-11T10:15:18.589Z,90.91
2022-12-11T10:18:17.327Z,90.94
2022-12-11T10:21:10.912Z,90.92
2022-12-11T10:24:11.620Z,90.94
2022-12-11T10:27:15.490Z,90.59
2022-12-11T10:30:16.298Z,91.04
2022-12-11T10:33:18.414Z,91.40
2022-12-11T10:36:11.955Z,91.56
2022-12-11T10:39:05.017Z,91.65
2022-12-11T10:41:58.195Z,91.89
2022-12-11T10:45:01.796Z,91.97
2022-12-11T10:48:02.903Z,91.92
2022-12-11T10:51:07.276Z,92.16
2022-12-11T10:54:07.277Z,92.44
2022-12-11T10:57:00.620Z,92.81
2022-12-11T10:59:54.047Z,93.10
2022-12-11T11:02:48.369Z,93.21
2022-12-11T11:05:44.922Z,93.32
2022-12-11T11:08:45.835Z,93.46
2022-12-11T11:11:39.615Z,93.11
2022-12-11T11:14:31.798Z,92.78
2022-12-11T11:17:23.979Z,92.72
2022-12-11T11:20:20.108Z,92.62
2022-12-11T11:23:17.256Z,92.72
2022-12-11T11:26:13.210Z,92.75
2022-12-11T11:29:06.215Z,92.33
2022-12-11T11:31:58.660Z,92.06
2022-12-11T11:34:51.094Z,91.89
2022-12-11T11:37:46.753Z,91.54
2022-12-11T11:40:43.828Z,91.31
2022-12-11T11:43:43.851Z,91.11
2022-12-11T11:46:40.669Z,91.13
2022-12-11T11:49:45.834Z,91.31
2022-12-11T11:52:45.590Z,90.48
2022-12-11T11:55:48.515Z,87.04
2022-12-11T11:58:46.996Z,82.67
2022-12-11T12:01:39.161Z,78.69
2022-12-11T12:04:35.327Z,73.38
2022-12-11T12:07:40.821Z,69.60
2022-12-11T12:10:44.741Z,66.99
2022-12-11T12:13:50.603Z,62.25
2022-12-11T12:16:53.650Z,58.26
2022-12-11T12:19:53.186Z,57.11
2022-12-11T12:23:08.315Z,59.37
2022-12-11T12:26:07.993Z,60.13
2022-12-11T12:29:12.292Z,61.07
2022-12-11T12:32:11.005Z,62.28
2022-12-11T12:35:16.971Z,64.23
2022-12-11T12:38:17.007Z,65.50
2022-12-11T12:41:19.795Z,67.20
2022-12-11T12:44:19.575Z,68.92
2022-12-11T12:47:16.113Z,70.07
2022-12-11T12:50:14.823Z,71.09
2022-12-11T12:53:25.354Z,71.72
2022-12-11T12:56:18.409Z,72.52
2022-12-11T12:59:22.257Z,73.03
2022-12-11T13:02:18.808Z,73.57
2022-12-11T13:05:24.927Z,73.75
2022-12-11T13:08:29.043Z,73.66
2022-12-11T13:11:31.547Z,73.30
2022-12-11T13:14:32.761Z,73.01
2022-12-11T13:17:39.036Z,72.87
2022-12-11T13:20:32.349Z,73.31
2022-12-11T13:23:31.265Z,73.62
2022-12-11T13:26:33.018Z,73.87
2022-12-11T13:29:39.623Z,74.61
2022-12-11T13:32:34.588Z,76.01
2022-12-11T13:35:27.678Z,76.95
2022-12-11T13:38:22.387Z,77.56
2022-12-11T13:41:20.063Z,78.00
2022-12-11T13:44:21.493Z,78.87
2022-12-11T13:47:18.825Z,79.55
2022-12-11T13:50:20.080Z,79.91
2022-12-11T13:53:19.398Z,80.23
2022-12-11T13:56:20.063Z,80.05
2022-12-11T13:59:25.942Z,80.02
2022-12-11T14:02:22.865Z,80.06
2022-12-11T14:05:16.420Z,80.38
2022-12-11T14:08:11.849Z,80.66
2022-12-11T14:11:05.645Z,80.82
2022-12-11T14:14:01.182Z,81.38
2022-12-11T14:16:54.148Z,81.75
2022-12-11T14:19:50.744Z,81.90
2022-12-11T14:22:42.764Z,82.03
2022-12-11T14:25:35.195Z,82.35
2022-12-11T14:28:29.272Z,82.71
2022-12-11T14:31:25.741Z,83.01
2022-12-11T14:34:24.880Z,83.50
2022-12-11T14:37:19.180Z,84.02
2022-12-11T14:40:17.516Z,84.63
2022-12-11T14:43:13.973Z,85.22
2022-12-11T14:46:10.423Z,85.81
2022-12-11T14:49:07.934Z,86.12
2022-12-11T14:52:01.492Z,86.53
2022-12-11T14:54:58.443Z,86.93
2022-12-11T14:57:55.441Z,87.30
2022-12-11T15:00:57.709Z,87.67
2022-12-11T15:03:50.262Z,87.64
2022-12-11T15:06:48.803Z,87.93
2022-12-11T15:09:42.699Z,88.24
2022-12-11T15:12:35.185Z,88.42
2022-12-11T15:15:29.603Z,88.70
2022-12-11T15:18:25.589Z,88.92
2022-12-11T15:21:17.694Z,89.27
2022-12-11T15:24:27.402Z,89.50
2022-12-11T15:27:31.808Z,89.91
2022-12-11T15:30:43.454Z,90.14
2022-12-11T15:33:46.577Z,90.33
2022-12-11T15:36:39.528Z,90.53
2022-12-11T15:39:32.911Z,90.74
2022-12-11T15:42:29.019Z,90.87
2022-12-11T15:45:22.941Z,90.93
2022-12-11T15:48:15.099Z,90.91
2022-12-11T15:51:07.535Z,90.99
2022-12-11T15:53:59.788Z,91.18
2022-12-11T15:56:52.044Z,91.31
2022-12-11T15:59:45.041Z,91.52
2022-12-11T16:02:37.719Z,91.80
2022-12-11T16:05:30.264Z,91.92
2022-12-11T16:08:24.112Z,91.91
2022-12-11T16:11:17.230Z,92.01
2022-12-11T16:14:09.420Z,91.95
2022-12-11T16:17:01.717Z,91.85
2022-12-11T16:19:54.868Z,92.09
2022-12-11T16:22:46.998Z,92.26
2022-12-11T16:25:40.542Z,92.47
2022-12-11T16:28:32.713Z,92.70
2022-12-11T16:31:24.911Z,92.86
2022-12-11T16:34:17.113Z,93.09
2022-12-11T16:37:10.661Z,93.08
2022-12-11T16:40:02.814Z,93.05
2022-12-11T16:42:55.811Z,93.14
2022-12-11T16:45:48.024Z,93.08
2022-12-11T16:48:40.220Z,93.17
2022-12-11T16:51:32.657Z,93.12
2022-12-11T16:54:24.841Z,93.11
2022-12-11T16:57:17.204Z,93.20
2022-12-11T17:00:12.221Z,93.30
2022-12-11T17:03:04.479Z,93.48
2022-12-11T17:05:57.173Z,93.70
2022-12-11T17:08:49.998Z,93.85
2022-12-11T17:11:43.277Z,94.13
2022-12-11T17:14:35.559Z,94.17
2022-12-11T17:17:27.825Z,94.27
2022-12-11T17:20:21.507Z,94.12
2022-12-11T17:23:14.686Z,94.08
2022-12-11T17:26:09.013Z,94.05
2022-12-11T17:29:01.937Z,94.00
2022-12-11T17:31:54.261Z,94.05
2022-12-11T17:34:48.336Z,94.14
2022-12-11T17:37:40.205Z,94.27
2022-12-11T17:40:32.453Z,94.28
2022-12-11T17:43:24.886Z,94.27
2022-12-11T17:46:17.247Z,94.38
2022-12-11T17:49:09.534Z,94.31
2022-12-11T17:52:02.265Z,94.26
2022-12-11T17:54:55.335Z,94.31
2022-12-11T17:57:47.851Z,94.31
2022-12-11T18:00:41.408Z,94.51
2022-12-11T18:03:33.338Z,94.57
2022-12-11T18:06:25.632Z,94.66
2022-12-11T18:09:17.993Z,94.68
2022-12-11T18:12:11.073Z,94.68
2022-12-11T18:15:04.959Z,94.73
2022-12-11T18:17:59.780Z,94.59
2022-12-11T18:20:52.307Z,94.53
2022-12-11T18:23:44.824Z,94.40
2022-12-11T18:26:38.051Z,94.45
2022-12-11T18:29:30.447Z,94.47
2022-12-11T18:32:22.598Z,94.51
2022-12-11T18:35:15.473Z,94.49
2022-12-11T18:38:07.654Z,94.61
2022-12-11T18:40:59.975Z,94.54
2022-12-11T18:43:54.839Z,94.57
2022-12-11T18:46:47.246Z,94.57
2022-12-11T18:49:39.918Z,94.61
2022-12-11T18:52:32.295Z,94.51
2022-12-11T18:55:24.881Z,94.52
2022-12-11T18:58:20.746Z,94.66
2022-12-11T19:01:15.243Z,94.74
2022-12-11T19:04:11.121Z,94.87
2022-12-11T19:07:04.177Z,95.02
2022-12-11T19:09:56.542Z,95.11
2022-12-11T19:12:49.592Z,95.12
2022-12-11T19:15:45.462Z,95.14
2022-12-11T19:18:37.753Z,95.21
2022-12-11T19:21:30.375Z,95.28
2022-12-11T19:24:24.878Z,95.32
2022-12-11T19:27:17.109Z,95.37
2022-12-11T19:30:12.601Z,95.46
2022-12-11T19:33:04.547Z,95.57
2022-12-11T19:36:05.223Z,95.71
2022-12-11T19:39:01.945Z,95.79
2022-12-11T19:41:55.234Z,95.72
2022-12-11T19:44:47.416Z,95.82
2022-12-11T19:47:39.699Z,95.78
2022-12-11T19:50:31.834Z,95.71
2022-12-11T19:53:24.080Z,95.74
2022-12-11T19:56:22.313Z,95.82
2022-12-11T19:59:16.877Z,95.94
2022-12-11T20:02:11.314Z,95.99
2022-12-11T20:05:03.774Z,96.12
2022-12-11T20:08:02.120Z,96.20
2022-12-11T20:11:14.318Z,96.30
2022-12-11T20:14:09.774Z,96.19
2022-12-11T20:17:12.331Z,96.26
2022-12-11T20:20:05.123Z,96.14
2022-12-11T20:22:59.975Z,96.13
2022-12-11T20:25:57.428Z,96.12
2022-12-11T20:28:52.994Z,96.14
2022-12-11T20:31:45.842Z,96.23
2022-12-11T20:34:38.173Z,96.23
2022-12-11T20:37:30.531Z,96.23
2022-12-11T20:40:22.951Z,96.23
2022-12-11T20:43:15.529Z,96.31
2022-12-11T20:46:09.957Z,96.22
2022-12-11T20:49:03.511Z,96.22
2022-12-11T20:51:55.744Z,96.18
2022-12-11T20:54:48.047Z,96.14
2022-12-11T21:01:08.626Z,96.37
2022-12-11T21:04:01.446Z,96.37
2022-12-11T21:06:56.524Z,96.35
2022-12-11T21:09:48.759Z,96.39
2022-12-11T21:12:47.307Z,96.41
2022-12-11T21:15:40.260Z,96.29
2022-12-11T21:18:33.266Z,96.38
2022-12-11T21:21:25.970Z,96.35
2022-12-11T21:24:20.693Z,96.44
2022-12-11T21:27:12.756Z,96.50
2022-12-11T21:30:05.724Z,96.59
2022-12-11T21:32:57.975Z,96.71
2022-12-11T21:35:57.121Z,96.93
2022-12-11T21:38:49.698Z,96.86
2022-12-11T21:41:42.176Z,96.86
2022-12-11T21:45:31.465Z,96.93
2022-12-11T21:47:46.952Z,96.92
2022-12-11T21:50:39.435Z,96.74
2022-12-11T21:53:32.103Z,96.72
2022-12-11T21:56:25.723Z,96.73
2022-12-11T21:59:18.245Z,96.90
2022-12-11T22:02:12.251Z,96.93
2022-12-11T22:05:04.992Z,97.00
2022-12-11T22:07:57.249Z,97.11
2022-12-11T22:10:49.715Z,97.23
2022-12-11T22:13:42.246Z,97.19
2022-12-11T22:16:35.097Z,97.15
2022-12-11T22:19:32.320Z,97.13
2022-12-11T22:22:25.111Z,96.96
2022-12-11T22:25:18.050Z,96.98
2022-12-11T22:28:10.323Z,97.00
2022-12-11T22:31:03.069Z,97.09
2022-12-11T22:33:56.917Z,97.27
2022-12-11T22:36:49.445Z,97.29
2022-12-11T22:39:41.801Z,97.34
2022-12-11T22:42:34.687Z,97.42
2022-12-11T22:45:27.031Z,97.52
2022-12-11T22:48:19.794Z,97.49
2022-12-11T22:51:12.873Z,97.51
2022-12-11T22:54:05.230Z,97.57
2022-12-11T22:56:57.467Z,97.57
2022-12-11T22:59:49.964Z,97.68
2022-12-11T23:02:43.125Z,97.83
2022-12-11T23:05:35.172Z,98.00
2022-12-11T23:08:27.536Z,98.11
2022-12-11T23:11:22.310Z,98.11
2022-12-11T23:14:18.624Z,98.14
2022-12-11T23:17:10.784Z,97.85
2022-12-11T23:20:04.142Z,97.74
2022-12-11T23:22:56.370Z,97.72
2022-12-11T23:25:48.686Z,97.81
2022-12-11T23:28:41.925Z,97.94
2022-12-11T23:31:34.245Z,98.00
2022-12-11T23:34:26.532Z,98.00
2022-12-11T23:37:18.821Z,98.18
2022-12-11T23:40:14.393Z,98.20
2022-12-11T23:43:06.559Z,98.21
2022-12-11T23:45:58.824Z,98.20
2022-12-11T23:48:51.448Z,98.07
2022-12-11T23:51:43.867Z,98.15
2022-12-11T23:54:36.129Z,98.05
2022-12-11T23:57:28.455Z,97.93
